sensor_id;sensor_type;location;lat;lon;timestamp;temperature;humidity
12111;DHT22;6119;52.372;8.990;2022-09-23T00:01:16;10.70;99.90
12111;DHT22;6119;52.372;8.990;2022-09-23T00:04:03;10.70;99.90
12111;DHT22;6119;52.372;8.990;2022-09-23T00:06:50;10.60;99.90
12111;DHT22;6119;52.372;8.990;2022-09-23T00:09:37;10.70;99.90
12111;DHT22;6119;52.372;8.990;2022-09-23T00:12:25;10.70;99.90
12111;DHT22;6119;52.372;8.990;2022-09-23T00:15:11;10.60;99.90
12111;DHT22;6119;52.372;8.990;2022-09-23T00:17:58;10.60;99.90
12111;DHT22;6119;52.372;8.990;2022-09-23T00:20:44;10.60;99.90
12111;DHT22;6119;52.372;8.990;2022-09-23T00:23:31;10.60;99.90
12111;DHT22;6119;52.372;8.990;2022-09-23T00:26:19;10.50;99.90
12111;DHT22;6119;52.372;8.990;2022-09-23T00:29:07;10.50;99.90
12111;DHT22;6119;52.372;8.990;2022-09-23T00:31:54;10.60;99.90
12111;DHT22;6119;52.372;8.990;2022-09-23T00:34:42;10.50;99.90
12111;DHT22;6119;52.372;8.990;2022-09-23T00:37:29;10.50;99.90
12111;DHT22;6119;52.372;8.990;2022-09-23T00:40:16;10.50;99.90
12111;DHT22;6119;52.372;8.990;2022-09-23T00:43:03;10.50;99.90
12111;DHT22;6119;52.372;8.990;2022-09-23T00:45:52;10.50;99.90
12111;DHT22;6119;52.372;8.990;2022-09-23T00:48:40;10.50;99.90
12111;DHT22;6119;52.372;8.990;2022-09-23T00:51:32;10.50;99.90
12111;DHT22;6119;52.372;8.990;2022-09-23T00:54:21;10.50;99.90
12111;DHT22;6119;52.372;8.990;2022-09-23T00:57:08;10.50;99.90
12111;DHT22;6119;52.372;8.990;2022-09-23T00:59:56;10.50;99.90
12111;DHT22;6119;52.372;8.990;2022-09-23T01:02:45;10.50;99.90
12111;DHT22;6119;52.372;8.990;2022-09-23T01:05:33;10.50;99.90
12111;DHT22;6119;52.372;8.990;2022-09-23T01:08:21;10.50;99.90
12111;DHT22;6119;52.372;8.990;2022-09-23T01:11:16;10.50;99.90
12111;DHT22;6119;52.372;8.990;2022-09-23T01:14:19;10.50;99.90
12111;DHT22;6119;52.372;8.990;2022-09-23T01:17:13;10.50;99.90
12111;DHT22;6119;52.372;8.990;2022-09-23T01:20:17;10.50;99.90
12111;DHT22;6119;52.372;8.990;2022-09-23T01:23:20;10.60;99.90
12111;DHT22;6119;52.372;8.990;2022-09-23T01:26:34;10.60;99.90
12111;DHT22;6119;52.372;8.990;2022-09-23T01:29:55;10.60;99.90
12111;DHT22;6119;52.372;8.990;2022-09-23T01:33:01;10.70;99.90
12111;DHT22;6119;52.372;8.990;2022-09-23T01:36:01;10.60;99.90
12111;DHT22;6119;52.372;8.990;2022-09-23T01:38:55;10.70;99.90
12111;DHT22;6119;52.372;8.990;2022-09-23T01:41:49;10.80;99.90
12111;DHT22;6119;52.372;8.990;2022-09-23T01:44:41;10.80;99.90
12111;DHT22;6119;52.372;8.990;2022-09-23T01:47:31;10.80;99.90
12111;DHT22;6119;52.372;8.990;2022-09-23T01:50:24;10.70;99.90
12111;DHT22;6119;52.372;8.990;2022-09-23T01:53:35;10.70;99.90
12111;DHT22;6119;52.372;8.990;2022-09-23T01:56:26;10.70;99.90
12111;DHT22;6119;52.372;8.990;2022-09-23T01:59:17;10.70;99.90
12111;DHT22;6119;52.372;8.990;2022-09-23T02:02:08;10.80;99.90
12111;DHT22;6119;52.372;8.990;2022-09-23T02:05:02;10.70;99.90
12111;DHT22;6119;52.372;8.990;2022-09-23T02:07:54;10.80;99.90
12111;DHT22;6119;52.372;8.990;2022-09-23T02:10:46;10.80;99.90
12111;DHT22;6119;52.372;8.990;2022-09-23T02:13:39;10.70;99.90
12111;DHT22;6119;52.372;8.990;2022-09-23T02:16:29;10.80;99.90
12111;DHT22;6119;52.372;8.990;2022-09-23T02:19:20;10.80;99.90
12111;DHT22;6119;52.372;8.990;2022-09-23T02:22:12;10.80;99.90
12111;DHT22;6119;52.372;8.990;2022-09-23T02:25:02;10.70;99.90
12111;DHT22;6119;52.372;8.990;2022-09-23T02:27:54;10.70;99.90
12111;DHT22;6119;52.372;8.990;2022-09-23T02:30:45;10.80;99.90
12111;DHT22;6119;52.372;8.990;2022-09-23T02:33:36;10.70;99.90
12111;DHT22;6119;52.372;8.990;2022-09-23T02:36:28;10.80;99.90
12111;DHT22;6119;52.372;8.990;2022-09-23T02:39:17;10.80;99.90
12111;DHT22;6119;52.372;8.990;2022-09-23T02:42:09;10.80;99.90
12111;DHT22;6119;52.372;8.990;2022-09-23T02:44:57;10.80;99.90
12111;DHT22;6119;52.372;8.990;2022-09-23T02:47:46;10.80;99.90
12111;DHT22;6119;52.372;8.990;2022-09-23T02:50:33;10.80;99.90
12111;DHT22;6119;52.372;8.990;2022-09-23T02:53:21;10.80;99.90
12111;DHT22;6119;52.372;8.990;2022-09-23T02:56:13;10.70;99.90
12111;DHT22;6119;52.372;8.990;2022-09-23T02:59:02;10.70;99.90
12111;DHT22;6119;52.372;8.990;2022-09-23T03:02:12;10.70;99.90
12111;DHT22;6119;52.372;8.990;2022-09-23T03:05:06;10.80;99.90
12111;DHT22;6119;52.372;8.990;2022-09-23T03:08:12;10.80;99.90
12111;DHT22;6119;52.372;8.990;2022-09-23T03:11:05;10.80;99.90
12111;DHT22;6119;52.372;8.990;2022-09-23T03:14:04;10.90;99.90
12111;DHT22;6119;52.372;8.990;2022-09-23T03:17:03;10.90;99.90
12111;DHT22;6119;52.372;8.990;2022-09-23T03:19:55;10.90;99.90
12111;DHT22;6119;52.372;8.990;2022-09-23T03:22:45;10.90;99.90
12111;DHT22;6119;52.372;8.990;2022-09-23T03:25:36;11.00;99.90
12111;DHT22;6119;52.372;8.990;2022-09-23T03:28:24;11.10;99.90
12111;DHT22;6119;52.372;8.990;2022-09-23T03:31:13;11.10;99.90
12111;DHT22;6119;52.372;8.990;2022-09-23T03:34:02;11.10;99.90
12111;DHT22;6119;52.372;8.990;2022-09-23T03:36:53;11.20;99.90
12111;DHT22;6119;52.372;8.990;2022-09-23T03:39:46;11.20;99.90
12111;DHT22;6119;52.372;8.990;2022-09-23T03:42:36;11.20;99.90
12111;DHT22;6119;52.372;8.990;2022-09-23T03:45:33;11.30;99.90
12111;DHT22;6119;52.372;8.990;2022-09-23T03:48:22;11.30;99.90
12111;DHT22;6119;52.372;8.990;2022-09-23T03:51:22;11.30;99.90
12111;DHT22;6119;52.372;8.990;2022-09-23T03:54:08;11.40;99.90
12111;DHT22;6119;52.372;8.990;2022-09-23T03:56:55;11.40;99.90
12111;DHT22;6119;52.372;8.990;2022-09-23T03:59:42;11.40;99.90
12111;DHT22;6119;52.372;8.990;2022-09-23T04:02:29;11.40;99.90
12111;DHT22;6119;52.372;8.990;2022-09-23T04:05:18;11.40;99.90
12111;DHT22;6119;52.372;8.990;2022-09-23T04:08:04;11.40;99.90
12111;DHT22;6119;52.372;8.990;2022-09-23T04:10:50;11.40;99.90
12111;DHT22;6119;52.372;8.990;2022-09-23T04:13:39;11.40;99.90
12111;DHT22;6119;52.372;8.990;2022-09-23T04:16:25;11.40;99.90
12111;DHT22;6119;52.372;8.990;2022-09-23T04:19:13;11.50;99.90
12111;DHT22;6119;52.372;8.990;2022-09-23T04:22:01;11.40;99.90
12111;DHT22;6119;52.372;8.990;2022-09-23T04:24:48;11.40;99.90
12111;DHT22;6119;52.372;8.990;2022-09-23T04:27:34;11.40;99.90
12111;DHT22;6119;52.372;8.990;2022-09-23T04:30:22;11.40;99.90
12111;DHT22;6119;52.372;8.990;2022-09-23T04:33:09;11.40;99.90
12111;DHT22;6119;52.372;8.990;2022-09-23T04:35:56;11.40;99.90
12111;DHT22;6119;52.372;8.990;2022-09-23T04:38:44;11.40;99.90
12111;DHT22;6119;52.372;8.990;2022-09-23T04:41:30;11.40;99.90
12111;DHT22;6119;52.372;8.990;2022-09-23T04:44:17;11.40;99.90
12111;DHT22;6119;52.372;8.990;2022-09-23T04:47:05;11.40;99.90
12111;DHT22;6119;52.372;8.990;2022-09-23T04:49:51;11.40;99.90
12111;DHT22;6119;52.372;8.990;2022-09-23T04:52:43;11.30;99.90
12111;DHT22;6119;52.372;8.990;2022-09-23T04:55:31;11.30;99.90
12111;DHT22;6119;52.372;8.990;2022-09-23T04:58:18;11.40;99.90
12111;DHT22;6119;52.372;8.990;2022-09-23T05:01:08;11.30;99.90
12111;DHT22;6119;52.372;8.990;2022-09-23T05:03:56;11.40;99.90
12111;DHT22;6119;52.372;8.990;2022-09-23T05:06:46;11.40;99.90
12111;DHT22;6119;52.372;8.990;2022-09-23T05:09:33;11.40;99.90
12111;DHT22;6119;52.372;8.990;2022-09-23T05:12:21;11.40;99.90
12111;DHT22;6119;52.372;8.990;2022-09-23T05:15:07;11.30;99.90
12111;DHT22;6119;52.372;8.990;2022-09-23T05:17:56;11.30;99.90
12111;DHT22;6119;52.372;8.990;2022-09-23T05:20:42;11.30;99.90
12111;DHT22;6119;52.372;8.990;2022-09-23T05:23:29;11.30;99.90
12111;DHT22;6119;52.372;8.990;2022-09-23T05:26:16;11.30;99.90
12111;DHT22;6119;52.372;8.990;2022-09-23T05:29:03;11.30;99.90
12111;DHT22;6119;52.372;8.990;2022-09-23T05:31:50;11.20;99.90
12111;DHT22;6119;52.372;8.990;2022-09-23T05:34:37;11.30;99.90
12111;DHT22;6119;52.372;8.990;2022-09-23T05:37:24;11.30;99.90
12111;DHT22;6119;52.372;8.990;2022-09-23T05:40:10;11.20;99.90
12111;DHT22;6119;52.372;8.990;2022-09-23T05:42:57;11.20;99.90
12111;DHT22;6119;52.372;8.990;2022-09-23T05:45:44;11.30;99.90
12111;DHT22;6119;52.372;8.990;2022-09-23T05:48:31;11.20;99.90
12111;DHT22;6119;52.372;8.990;2022-09-23T05:51:19;11.30;99.90
12111;DHT22;6119;52.372;8.990;2022-09-23T05:54:07;11.30;99.90
12111;DHT22;6119;52.372;8.990;2022-09-23T05:56:54;11.30;99.90
12111;DHT22;6119;52.372;8.990;2022-09-23T05:59:43;11.30;99.90
12111;DHT22;6119;52.372;8.990;2022-09-23T06:02:33;11.30;99.90
12111;DHT22;6119;52.372;8.990;2022-09-23T06:05:19;11.30;99.90
12111;DHT22;6119;52.372;8.990;2022-09-23T06:08:07;11.30;99.90
12111;DHT22;6119;52.372;8.990;2022-09-23T06:10:54;11.30;99.90
12111;DHT22;6119;52.372;8.990;2022-09-23T06:13:41;11.30;99.90
12111;DHT22;6119;52.372;8.990;2022-09-23T06:16:29;11.30;99.90
12111;DHT22;6119;52.372;8.990;2022-09-23T06:19:17;11.30;99.90
12111;DHT22;6119;52.372;8.990;2022-09-23T06:22:04;11.30;99.90
12111;DHT22;6119;52.372;8.990;2022-09-23T06:24:50;11.30;99.90
12111;DHT22;6119;52.372;8.990;2022-09-23T06:27:37;11.30;99.90
12111;DHT22;6119;52.372;8.990;2022-09-23T06:30:24;11.30;99.90
12111;DHT22;6119;52.372;8.990;2022-09-23T06:33:13;11.30;99.90
12111;DHT22;6119;52.372;8.990;2022-09-23T06:36:05;11.30;99.90
12111;DHT22;6119;52.372;8.990;2022-09-23T06:38:52;11.40;99.90
12111;DHT22;6119;52.372;8.990;2022-09-23T06:41:40;11.40;99.90
12111;DHT22;6119;52.372;8.990;2022-09-23T06:44:26;11.40;99.90
12111;DHT22;6119;52.372;8.990;2022-09-23T06:47:13;11.50;99.90
12111;DHT22;6119;52.372;8.990;2022-09-23T06:49:59;11.60;99.90
12111;DHT22;6119;52.372;8.990;2022-09-23T06:52:51;11.70;99.90
12111;DHT22;6119;52.372;8.990;2022-09-23T06:55:38;11.70;99.90
12111;DHT22;6119;52.372;8.990;2022-09-23T06:58:25;11.80;99.90
12111;DHT22;6119;52.372;8.990;2022-09-23T07:01:13;12.00;99.90
12111;DHT22;6119;52.372;8.990;2022-09-23T07:04:01;12.10;99.90
12111;DHT22;6119;52.372;8.990;2022-09-23T07:06:48;12.20;99.90
12111;DHT22;6119;52.372;8.990;2022-09-23T07:09:35;12.20;99.90
12111;DHT22;6119;52.372;8.990;2022-09-23T07:12:22;12.30;99.90
12111;DHT22;6119;52.372;8.990;2022-09-23T07:15:09;12.40;99.90
12111;DHT22;6119;52.372;8.990;2022-09-23T07:17:56;12.50;99.90
12111;DHT22;6119;52.372;8.990;2022-09-23T07:20:43;12.60;99.90
12111;DHT22;6119;52.372;8.990;2022-09-23T07:23:30;12.60;99.90
12111;DHT22;6119;52.372;8.990;2022-09-23T07:26:19;12.70;99.90
12111;DHT22;6119;52.372;8.990;2022-09-23T07:29:10;12.80;99.90
12111;DHT22;6119;52.372;8.990;2022-09-23T07:31:57;12.80;99.90
12111;DHT22;6119;52.372;8.990;2022-09-23T07:34:57;12.80;99.90
12111;DHT22;6119;52.372;8.990;2022-09-23T07:37:44;12.90;99.90
12111;DHT22;6119;52.372;8.990;2022-09-23T07:40:30;12.90;99.90
12111;DHT22;6119;52.372;8.990;2022-09-23T07:43:18;12.90;99.90
12111;DHT22;6119;52.372;8.990;2022-09-23T07:46:06;13.00;99.90
12111;DHT22;6119;52.372;8.990;2022-09-23T07:48:55;13.10;99.90
12111;DHT22;6119;52.372;8.990;2022-09-23T07:51:42;13.20;99.90
12111;DHT22;6119;52.372;8.990;2022-09-23T07:54:30;13.30;99.90
12111;DHT22;6119;52.372;8.990;2022-09-23T07:57:17;13.40;99.90
12111;DHT22;6119;52.372;8.990;2022-09-23T08:00:06;13.50;99.90
12111;DHT22;6119;52.372;8.990;2022-09-23T08:02:53;13.60;99.90
12111;DHT22;6119;52.372;8.990;2022-09-23T08:05:39;13.70;99.90
12111;DHT22;6119;52.372;8.990;2022-09-23T08:08:26;13.80;99.90
12111;DHT22;6119;52.372;8.990;2022-09-23T08:11:13;13.80;99.90
12111;DHT22;6119;52.372;8.990;2022-09-23T08:13:59;13.80;99.90
12111;DHT22;6119;52.372;8.990;2022-09-23T08:16:48;13.90;99.90
12111;DHT22;6119;52.372;8.990;2022-09-23T08:19:36;13.90;99.90
12111;DHT22;6119;52.372;8.990;2022-09-23T08:22:22;14.00;99.90
12111;DHT22;6119;52.372;8.990;2022-09-23T08:25:08;14.00;99.90
12111;DHT22;6119;52.372;8.990;2022-09-23T08:27:55;14.10;99.90
12111;DHT22;6119;52.372;8.990;2022-09-23T08:30:42;14.10;99.90
12111;DHT22;6119;52.372;8.990;2022-09-23T08:33:30;14.20;99.90
12111;DHT22;6119;52.372;8.990;2022-09-23T08:36:16;14.30;99.90
12111;DHT22;6119;52.372;8.990;2022-09-23T08:39:03;14.40;99.90
12111;DHT22;6119;52.372;8.990;2022-09-23T08:42:03;14.50;99.90
12111;DHT22;6119;52.372;8.990;2022-09-23T08:44:54;14.60;99.90
12111;DHT22;6119;52.372;8.990;2022-09-23T08:47:48;14.70;99.90
12111;DHT22;6119;52.372;8.990;2022-09-23T08:50:40;14.80;99.90
12111;DHT22;6119;52.372;8.990;2022-09-23T08:53:30;14.90;99.90
12111;DHT22;6119;52.372;8.990;2022-09-23T08:56:20;15.10;99.90
12111;DHT22;6119;52.372;8.990;2022-09-23T08:59:11;15.10;99.90
12111;DHT22;6119;52.372;8.990;2022-09-23T09:02:04;15.10;99.90
12111;DHT22;6119;52.372;8.990;2022-09-23T09:04:53;15.40;99.90
12111;DHT22;6119;52.372;8.990;2022-09-23T09:07:43;15.50;99.90
12111;DHT22;6119;52.372;8.990;2022-09-23T09:10:36;15.70;99.90
12111;DHT22;6119;52.372;8.990;2022-09-23T09:13:30;15.70;99.90
12111;DHT22;6119;52.372;8.990;2022-09-23T09:16:39;15.80;99.90
12111;DHT22;6119;52.372;8.990;2022-09-23T09:19:56;15.90;99.90
12111;DHT22;6119;52.372;8.990;2022-09-23T09:22:51;16.00;99.90
12111;DHT22;6119;52.372;8.990;2022-09-23T09:25:43;16.10;99.90
12111;DHT22;6119;52.372;8.990;2022-09-23T09:28:37;16.20;99.90
12111;DHT22;6119;52.372;8.990;2022-09-23T09:31:28;16.30;99.90
12111;DHT22;6119;52.372;8.990;2022-09-23T09:34:25;16.50;99.90
12111;DHT22;6119;52.372;8.990;2022-09-23T09:37:17;16.50;99.90
12111;DHT22;6119;52.372;8.990;2022-09-23T09:40:10;16.60;99.90
12111;DHT22;6119;52.372;8.990;2022-09-23T09:42:57;16.70;99.90
12111;DHT22;6119;52.372;8.990;2022-09-23T09:45:51;16.70;99.90
12111;DHT22;6119;52.372;8.990;2022-09-23T09:48:48;16.90;99.90
12111;DHT22;6119;52.372;8.990;2022-09-23T09:51:37;16.90;99.90
12111;DHT22;6119;52.372;8.990;2022-09-23T09:54:25;16.90;99.90
12111;DHT22;6119;52.372;8.990;2022-09-23T09:57:20;17.10;99.90
12111;DHT22;6119;52.372;8.990;2022-09-23T10:00:35;17.20;99.90
12111;DHT22;6119;52.372;8.990;2022-09-23T10:03:32;17.20;99.90
12111;DHT22;6119;52.372;8.990;2022-09-23T10:06:21;17.30;99.90
12111;DHT22;6119;52.372;8.990;2022-09-23T10:09:13;17.40;99.90
12111;DHT22;6119;52.372;8.990;2022-09-23T10:12:09;17.30;99.90
12111;DHT22;6119;52.372;8.990;2022-09-23T10:14:58;17.40;99.90
12111;DHT22;6119;52.372;8.990;2022-09-23T10:17:49;17.70;99.90
12111;DHT22;6119;52.372;8.990;2022-09-23T10:20:36;17.60;99.90
12111;DHT22;6119;52.372;8.990;2022-09-23T10:23:27;17.60;99.90
12111;DHT22;6119;52.372;8.990;2022-09-23T10:26:14;17.70;99.90
12111;DHT22;6119;52.372;8.990;2022-09-23T10:29:03;17.80;99.90
12111;DHT22;6119;52.372;8.990;2022-09-23T10:32:24;17.80;99.90
12111;DHT22;6119;52.372;8.990;2022-09-23T10:35:14;17.80;99.90
12111;DHT22;6119;52.372;8.990;2022-09-23T10:38:01;17.90;99.90
12111;DHT22;6119;52.372;8.990;2022-09-23T10:40:47;17.90;99.90
12111;DHT22;6119;52.372;8.990;2022-09-23T10:44:02;18.00;99.90
12111;DHT22;6119;52.372;8.990;2022-09-23T10:47:18;18.10;99.90
12111;DHT22;6119;52.372;8.990;2022-09-23T10:50:22;18.10;99.90
12111;DHT22;6119;52.372;8.990;2022-09-23T10:53:20;18.20;99.90
12111;DHT22;6119;52.372;8.990;2022-09-23T10:56:17;18.20;99.90
12111;DHT22;6119;52.372;8.990;2022-09-23T10:59:33;18.20;99.90
12111;DHT22;6119;52.372;8.990;2022-09-23T11:02:43;18.20;99.90
12111;DHT22;6119;52.372;8.990;2022-09-23T11:05:37;18.10;99.90
12111;DHT22;6119;52.372;8.990;2022-09-23T11:08:38;18.00;99.90
12111;DHT22;6119;52.372;8.990;2022-09-23T11:11:36;18.10;99.90
12111;DHT22;6119;52.372;8.990;2022-09-23T11:15:02;18.10;99.90
12111;DHT22;6119;52.372;8.990;2022-09-23T11:18:20;18.10;99.90
12111;DHT22;6119;52.372;8.990;2022-09-23T11:21:30;18.20;99.90
12111;DHT22;6119;52.372;8.990;2022-09-23T11:24:41;18.20;99.90
12111;DHT22;6119;52.372;8.990;2022-09-23T11:27:41;18.30;99.90
12111;DHT22;6119;52.372;8.990;2022-09-23T11:30:38;18.30;99.90
12111;DHT22;6119;52.372;8.990;2022-09-23T11:33:40;18.40;99.90
12111;DHT22;6119;52.372;8.990;2022-09-23T11:36:34;18.40;99.90
12111;DHT22;6119;52.372;8.990;2022-09-23T11:39:26;18.40;99.90
12111;DHT22;6119;52.372;8.990;2022-09-23T11:42:19;18.30;99.90
12111;DHT22;6119;52.372;8.990;2022-09-23T11:45:13;18.40;99.90
12111;DHT22;6119;52.372;8.990;2022-09-23T11:48:06;18.40;99.90
12111;DHT22;6119;52.372;8.990;2022-09-23T11:50:58;18.50;99.90
12111;DHT22;6119;52.372;8.990;2022-09-23T11:53:48;18.50;99.90
12111;DHT22;6119;52.372;8.990;2022-09-23T11:56:40;18.60;99.90
12111;DHT22;6119;52.372;8.990;2022-09-23T11:59:37;18.70;99.90
12111;DHT22;6119;52.372;8.990;2022-09-23T12:02:29;18.70;99.90
12111;DHT22;6119;52.372;8.990;2022-09-23T12:05:21;18.80;99.90
12111;DHT22;6119;52.372;8.990;2022-09-23T12:08:16;18.70;99.90
12111;DHT22;6119;52.372;8.990;2022-09-23T12:11:18;18.60;99.90
12111;DHT22;6119;52.372;8.990;2022-09-23T12:14:14;18.60;99.90
12111;DHT22;6119;52.372;8.990;2022-09-23T12:17:18;18.70;99.90
12111;DHT22;6119;52.372;8.990;2022-09-23T12:20:19;18.70;99.90
12111;DHT22;6119;52.372;8.990;2022-09-23T12:23:25;18.80;99.90
12111;DHT22;6119;52.372;8.990;2022-09-23T12:26:17;18.80;99.90
12111;DHT22;6119;52.372;8.990;2022-09-23T12:29:06;18.90;99.90
12111;DHT22;6119;52.372;8.990;2022-09-23T12:31:56;18.80;99.90
12111;DHT22;6119;52.372;8.990;2022-09-23T12:34:45;18.90;99.90
12111;DHT22;6119;52.372;8.990;2022-09-23T12:37:36;19.00;99.90
12111;DHT22;6119;52.372;8.990;2022-09-23T12:40:29;19.00;99.90
12111;DHT22;6119;52.372;8.990;2022-09-23T12:43:17;18.90;99.90
12111;DHT22;6119;52.372;8.990;2022-09-23T12:46:19;18.90;99.90
12111;DHT22;6119;52.372;8.990;2022-09-23T12:49:22;19.00;99.90
12111;DHT22;6119;52.372;8.990;2022-09-23T12:52:23;18.90;99.90
12111;DHT22;6119;52.372;8.990;2022-09-23T12:58:56;19.00;99.90
12111;DHT22;6119;52.372;8.990;2022-09-23T13:01:43;18.90;99.90
12111;DHT22;6119;52.372;8.990;2022-09-23T13:04:42;19.00;99.90
12111;DHT22;6119;52.372;8.990;2022-09-23T13:07:49;19.00;99.90
12111;DHT22;6119;52.372;8.990;2022-09-23T13:10:43;18.90;99.90
12111;DHT22;6119;52.372;8.990;2022-09-23T13:13:36;19.00;99.90
12111;DHT22;6119;52.372;8.990;2022-09-23T13:16:29;19.10;99.90
12111;DHT22;6119;52.372;8.990;2022-09-23T13:19:44;19.10;99.90
12111;DHT22;6119;52.372;8.990;2022-09-23T13:23:01;19.10;99.90
12111;DHT22;6119;52.372;8.990;2022-09-23T13:25:53;19.20;99.90
12111;DHT22;6119;52.372;8.990;2022-09-23T13:28:52;19.30;99.90
12111;DHT22;6119;52.372;8.990;2022-09-23T13:31:42;19.30;99.90
12111;DHT22;6119;52.372;8.990;2022-09-23T13:34:32;19.20;99.90
12111;DHT22;6119;52.372;8.990;2022-09-23T13:37:21;19.20;99.90
12111;DHT22;6119;52.372;8.990;2022-09-23T13:40:16;19.10;99.90
12111;DHT22;6119;52.372;8.990;2022-09-23T13:43:06;19.10;99.90
12111;DHT22;6119;52.372;8.990;2022-09-23T13:45:55;19.10;99.90
12111;DHT22;6119;52.372;8.990;2022-09-23T13:48:45;19.10;99.90
12111;DHT22;6119;52.372;8.990;2022-09-23T13:51:34;19.20;99.90
12111;DHT22;6119;52.372;8.990;2022-09-23T13:54:29;19.40;99.90
12111;DHT22;6119;52.372;8.990;2022-09-23T13:57:24;19.40;99.90
12111;DHT22;6119;52.372;8.990;2022-09-23T14:00:17;19.40;99.90
12111;DHT22;6119;52.372;8.990;2022-09-23T14:03:23;19.40;99.90
12111;DHT22;6119;52.372;8.990;2022-09-23T14:06:12;19.40;99.90
12111;DHT22;6119;52.372;8.990;2022-09-23T14:09:00;19.30;99.90
12111;DHT22;6119;52.372;8.990;2022-09-23T14:11:48;19.20;99.90
12111;DHT22;6119;52.372;8.990;2022-09-23T14:14:37;19.10;99.90
12111;DHT22;6119;52.372;8.990;2022-09-23T14:17:25;19.10;99.90
12111;DHT22;6119;52.372;8.990;2022-09-23T14:20:13;19.10;99.90
12111;DHT22;6119;52.372;8.990;2022-09-23T14:23:08;19.00;99.90
12111;DHT22;6119;52.372;8.990;2022-09-23T14:25:57;19.00;99.90
12111;DHT22;6119;52.372;8.990;2022-09-23T14:28:45;19.00;99.90
12111;DHT22;6119;52.372;8.990;2022-09-23T14:31:32;18.90;99.90
12111;DHT22;6119;52.372;8.990;2022-09-23T14:34:42;18.90;99.90
12111;DHT22;6119;52.372;8.990;2022-09-23T14:37:30;18.80;99.90
12111;DHT22;6119;52.372;8.990;2022-09-23T14:40:48;18.90;99.90
12111;DHT22;6119;52.372;8.990;2022-09-23T14:43:35;18.90;99.90
12111;DHT22;6119;52.372;8.990;2022-09-23T14:46:24;18.80;99.90
12111;DHT22;6119;52.372;8.990;2022-09-23T14:49:15;18.80;99.90
12111;DHT22;6119;52.372;8.990;2022-09-23T14:52:04;18.80;99.90
12111;DHT22;6119;52.372;8.990;2022-09-23T14:54:51;18.80;99.90
12111;DHT22;6119;52.372;8.990;2022-09-23T14:57:39;18.80;99.90
12111;DHT22;6119;52.372;8.990;2022-09-23T15:00:27;18.80;99.90
12111;DHT22;6119;52.372;8.990;2022-09-23T15:03:15;18.80;99.90
12111;DHT22;6119;52.372;8.990;2022-09-23T15:06:05;18.70;99.90
12111;DHT22;6119;52.372;8.990;2022-09-23T15:08:54;18.70;99.90
12111;DHT22;6119;52.372;8.990;2022-09-23T15:11:41;18.70;99.90
12111;DHT22;6119;52.372;8.990;2022-09-23T15:14:34;18.70;99.90
12111;DHT22;6119;52.372;8.990;2022-09-23T15:17:29;18.70;99.90
12111;DHT22;6119;52.372;8.990;2022-09-23T15:20:21;18.70;99.90
12111;DHT22;6119;52.372;8.990;2022-09-23T15:23:31;18.60;99.90
12111;DHT22;6119;52.372;8.990;2022-09-23T15:26:19;18.70;99.90
12111;DHT22;6119;52.372;8.990;2022-09-23T15:29:07;18.70;99.90
12111;DHT22;6119;52.372;8.990;2022-09-23T15:31:55;18.70;99.90
12111;DHT22;6119;52.372;8.990;2022-09-23T15:34:43;18.60;99.90
12111;DHT22;6119;52.372;8.990;2022-09-23T15:37:29;18.50;99.90
12111;DHT22;6119;52.372;8.990;2022-09-23T15:40:22;18.60;99.90
12111;DHT22;6119;52.372;8.990;2022-09-23T15:43:13;18.60;99.90
12111;DHT22;6119;52.372;8.990;2022-09-23T15:46:07;18.60;99.90
12111;DHT22;6119;52.372;8.990;2022-09-23T15:48:58;18.50;99.90
12111;DHT22;6119;52.372;8.990;2022-09-23T15:51:45;18.50;99.90
12111;DHT22;6119;52.372;8.990;2022-09-23T15:54:31;18.50;99.90
12111;DHT22;6119;52.372;8.990;2022-09-23T15:57:18;18.50;99.90
12111;DHT22;6119;52.372;8.990;2022-09-23T16:00:06;18.40;99.90
12111;DHT22;6119;52.372;8.990;2022-09-23T16:02:56;18.40;99.90
12111;DHT22;6119;52.372;8.990;2022-09-23T16:05:46;18.40;99.90
12111;DHT22;6119;52.372;8.990;2022-09-23T16:08:33;18.30;99.90
12111;DHT22;6119;52.372;8.990;2022-09-23T16:11:21;18.20;99.90
12111;DHT22;6119;52.372;8.990;2022-09-23T16:14:11;18.20;99.90
12111;DHT22;6119;52.372;8.990;2022-09-23T16:16:58;18.10;99.90
12111;DHT22;6119;52.372;8.990;2022-09-23T16:19:47;18.10;99.90
12111;DHT22;6119;52.372;8.990;2022-09-23T16:22:35;18.10;99.90
12111;DHT22;6119;52.372;8.990;2022-09-23T16:25:24;18.10;99.90
12111;DHT22;6119;52.372;8.990;2022-09-23T16:28:11;17.90;99.90
12111;DHT22;6119;52.372;8.990;2022-09-23T16:30:57;17.70;99.90
12111;DHT22;6119;52.372;8.990;2022-09-23T16:33:45;17.70;99.90
12111;DHT22;6119;52.372;8.990;2022-09-23T16:36:33;17.80;99.90
12111;DHT22;6119;52.372;8.990;2022-09-23T16:39:21;17.80;99.90
12111;DHT22;6119;52.372;8.990;2022-09-23T16:42:07;17.70;99.90
12111;DHT22;6119;52.372;8.990;2022-09-23T16:44:54;17.80;99.90
12111;DHT22;6119;52.372;8.990;2022-09-23T16:47:41;17.70;99.90
12111;DHT22;6119;52.372;8.990;2022-09-23T16:50:29;17.60;99.90
12111;DHT22;6119;52.372;8.990;2022-09-23T16:53:17;17.60;99.90
12111;DHT22;6119;52.372;8.990;2022-09-23T16:56:07;17.50;99.90
12111;DHT22;6119;52.372;8.990;2022-09-23T16:58:54;17.40;99.90
12111;DHT22;6119;52.372;8.990;2022-09-23T17:01:41;17.40;99.90
12111;DHT22;6119;52.372;8.990;2022-09-23T17:04:45;17.30;99.90
12111;DHT22;6119;52.372;8.990;2022-09-23T17:07:32;17.30;99.90
12111;DHT22;6119;52.372;8.990;2022-09-23T17:10:18;17.30;99.90
12111;DHT22;6119;52.372;8.990;2022-09-23T17:13:07;17.30;99.90
12111;DHT22;6119;52.372;8.990;2022-09-23T17:15:54;17.20;99.90
12111;DHT22;6119;52.372;8.990;2022-09-23T17:18:40;17.20;99.90
12111;DHT22;6119;52.372;8.990;2022-09-23T17:21:28;17.20;99.90
12111;DHT22;6119;52.372;8.990;2022-09-23T17:24:14;17.10;99.90
12111;DHT22;6119;52.372;8.990;2022-09-23T17:27:01;17.00;99.90
12111;DHT22;6119;52.372;8.990;2022-09-23T17:29:49;17.00;99.90
12111;DHT22;6119;52.372;8.990;2022-09-23T17:32:35;17.00;99.90
12111;DHT22;6119;52.372;8.990;2022-09-23T17:35:22;16.90;99.90
12111;DHT22;6119;52.372;8.990;2022-09-23T17:38:08;16.80;99.90
12111;DHT22;6119;52.372;8.990;2022-09-23T17:40:56;16.80;99.90
12111;DHT22;6119;52.372;8.990;2022-09-23T17:43:43;16.80;99.90
12111;DHT22;6119;52.372;8.990;2022-09-23T17:46:32;16.70;99.90
12111;DHT22;6119;52.372;8.990;2022-09-23T17:49:18;16.70;99.90
12111;DHT22;6119;52.372;8.990;2022-09-23T17:52:06;16.60;99.90
12111;DHT22;6119;52.372;8.990;2022-09-23T17:54:52;16.60;99.90
12111;DHT22;6119;52.372;8.990;2022-09-23T17:57:39;16.60;99.90
12111;DHT22;6119;52.372;8.990;2022-09-23T18:00:25;16.60;99.90
12111;DHT22;6119;52.372;8.990;2022-09-23T18:03:13;16.50;99.90
12111;DHT22;6119;52.372;8.990;2022-09-23T18:06:07;16.50;99.90
12111;DHT22;6119;52.372;8.990;2022-09-23T18:08:54;16.40;99.90
12111;DHT22;6119;52.372;8.990;2022-09-23T18:11:42;16.40;99.90
12111;DHT22;6119;52.372;8.990;2022-09-23T18:14:29;16.40;99.90
12111;DHT22;6119;52.372;8.990;2022-09-23T18:17:16;16.40;99.90
12111;DHT22;6119;52.372;8.990;2022-09-23T18:20:05;16.30;99.90
12111;DHT22;6119;52.372;8.990;2022-09-23T18:22:52;16.30;99.90